Time;durP1;ratioP1;P1;durP2;ratioP2;P2;SDS_P1;SDS_P2;PMS_P1;PMS_P2;Temp;Humidity;BMP_temperature;BMP_pressure;BME280_temperature;BME280_humidity;BME280_pressure;Samples;Min_cycle;Max_cycle;Signal;HPM_P1;HPM_P2
2022/12/14 00:01:21;;;;;;;12.30;8.68;;;13.90;99.90;;;;;;5074106;28;20403;-70
2022/12/14 00:03:47;;;;;;;12.70;8.32;;;13.80;99.90;;;;;;5075570;28;20032;-70
2022/12/14 00:06:15;;;;;;;13.00;8.75;;;13.80;99.90;;;;;;5075529;28;20043;-70
2022/12/14 00:08:42;;;;;;;11.35;8.68;;;13.80;99.90;;;;;;5074816;28;20056;-70
2022/12/14 00:11:08;;;;;;;11.13;8.15;;;13.80;99.90;;;;;;5074095;28;20024;-70
2022/12/14 00:13:35;;;;;;;11.55;8.30;;;13.80;99.90;;;;;;5074597;28;20043;-70
2022/12/14 00:16:12;;;;;;;13.45;8.68;;;13.80;99.90;;;;;;5075009;28;20472;-69
2022/12/14 00:18:39;;;;;;;13.35;9.07;;;13.70;99.90;;;;;;5075483;28;20056;-70
2022/12/14 00:21:08;;;;;;;11.90;7.97;;;13.70;99.90;;;;;;5074352;28;20033;-70
2022/12/14 00:23:35;;;;;;;11.35;8.70;;;13.70;99.90;;;;;;5074277;28;20115;-70
2022/12/14 00:26:29;;;;;;;14.25;8.80;;;13.70;99.90;;;;;;5074935;28;20033;-70
2022/12/14 00:28:57;;;;;;;11.95;7.47;;;13.70;99.90;;;;;;5057149;28;20320;-70
2022/12/14 00:31:24;;;;;;;14.00;8.35;;;13.60;99.90;;;;;;5071434;28;20374;-70
2022/12/14 00:33:51;;;;;;;12.90;8.82;;;13.60;99.90;;;;;;5038423;28;20037;-70
2022/12/14 00:36:17;;;;;;;12.55;8.35;;;13.60;99.90;;;;;;5059566;28;20332;-71
2022/12/14 00:38:43;;;;;;;12.20;8.55;;;13.60;99.90;;;;;;5059009;28;20033;-70
2022/12/14 00:41:10;;;;;;;12.63;9.00;;;13.60;99.90;;;;;;5058833;28;20494;-70
2022/12/14 00:43:36;;;;;;;13.15;8.57;;;13.50;99.90;;;;;;5058641;28;20041;-70
2022/12/14 00:46:04;;;;;;;12.88;8.73;;;13.50;99.90;;;;;;5057790;28;20037;-70
2022/12/14 00:48:31;;;;;;;12.55;7.82;;;13.50;99.90;;;;;;5041168;28;20420;-70
2022/12/14 00:50:57;;;;;;;13.32;8.75;;;13.50;99.90;;;;;;5058859;28;20313;-70
2022/12/14 00:53:24;;;;;;;14.20;9.27;;;13.50;99.90;;;;;;5058687;28;20051;-70
2022/12/14 00:55:50;;;;;;;14.10;9.02;;;13.40;99.90;;;;;;5058503;28;20029;-70
2022/12/14 00:58:19;;;;;;;12.75;8.93;;;13.40;99.90;;;;;;5057584;28;20033;-70
2022/12/14 01:00:47;;;;;;;15.55;9.30;;;13.40;99.90;;;;;;5058067;28;20095;-70
2022/12/14 01:03:14;;;;;;;13.63;8.50;;;13.40;99.90;;;;;;5058900;28;20084;-70
2022/12/14 01:05:39;;;;;;;12.30;8.93;;;13.40;99.90;;;;;;5058373;28;20033;-70
2022/12/14 01:08:06;;;;;;;13.68;8.88;;;13.40;99.90;;;;;;5058726;28;20481;-70
2022/12/14 01:10:32;;;;;;;12.20;8.15;;;13.30;99.90;;;;;;5057998;28;20029;-70
2022/12/14 01:12:58;;;;;;;10.93;8.35;;;13.30;99.90;;;;;;5057091;28;20348;-70
2022/12/14 01:15:24;;;;;;;13.40;8.73;;;13.30;99.90;;;;;;5057940;28;20344;-70
2022/12/14 01:17:51;;;;;;;15.30;8.93;;;13.30;99.90;;;;;;5058619;28;20056;-71
2022/12/14 01:20:18;;;;;;;13.05;8.57;;;13.30;99.90;;;;;;5058671;28;20470;-70
2022/12/14 01:22:44;;;;;;;13.20;8.93;;;13.20;99.90;;;;;;5058214;28;20527;-70
2022/12/14 01:25:10;;;;;;;11.38;8.48;;;13.20;99.90;;;;;;5058511;28;20108;-71
2022/12/14 01:27:36;;;;;;;14.20;8.93;;;13.20;99.90;;;;;;5057161;28;20432;-70
2022/12/14 01:30:03;;;;;;;13.15;9.10;;;13.20;99.90;;;;;;5058484;28;20044;-70
2022/12/14 01:32:30;;;;;;;12.45;8.00;;;13.20;99.90;;;;;;5067318;28;20036;-69
2022/12/14 01:34:55;;;;;;;13.88;8.75;;;13.10;99.90;;;;;;5077113;28;20419;-70
2022/12/14 01:37:21;;;;;;;12.23;8.55;;;13.10;99.90;;;;;;5077063;28;20308;-70
2022/12/14 01:39:47;;;;;;;12.48;8.50;;;13.10;99.90;;;;;;5077992;28;20025;-70
2022/12/14 01:42:15;;;;;;;11.60;8.57;;;13.10;99.90;;;;;;5077315;28;20305;-69
2022/12/14 01:44:43;;;;;;;12.50;8.73;;;13.10;99.90;;;;;;5077427;28;20032;-69
2022/12/14 01:47:34;;;;;;;13.88;9.38;;;13.10;99.90;;;;;;5076502;28;20510;-69
2022/12/14 01:50:09;;;;;;;15.10;9.10;;;13.10;99.90;;;;;;5077220;28;20453;-69
2022/12/14 01:52:39;;;;;;;12.25;8.52;;;13.10;99.90;;;;;;5059842;28;20036;-69
2022/12/14 01:55:23;;;;;;;11.35;8.52;;;13.00;99.90;;;;;;5078015;28;20446;-69
2022/12/14 01:58:17;;;;;;;13.25;9.02;;;13.00;99.90;;;;;;5077228;28;20086;-69
2022/12/14 02:00:44;;;;;;;16.05;9.20;;;13.00;99.90;;;;;;5074972;28;20458;-69
2022/12/14 02:03:14;;;;;;;13.35;8.90;;;13.00;99.90;;;;;;5077873;28;20035;-69
2022/12/14 02:05:45;;;;;;;13.55;8.73;;;12.90;99.90;;;;;;5077367;28;20504;-69
2022/12/14 02:08:11;;;;;;;11.00;8.20;;;12.90;99.90;;;;;;5077721;28;20035;-69
2022/12/14 02:10:39;;;;;;;12.90;8.75;;;12.90;99.90;;;;;;5075883;28;20037;-70
2022/12/14 02:13:13;;;;;;;12.35;8.70;;;12.90;99.90;;;;;;5076011;28;20064;-69
2022/12/14 02:15:40;;;;;;;13.13;9.20;;;12.90;99.90;;;;;;5076756;28;20036;-70
2022/12/14 02:18:11;;;;;;;12.80;8.90;;;12.90;99.90;;;;;;5077270;28;20134;-70
2022/12/14 02:21:02;;;;;;;14.80;9.10;;;12.90;99.90;;;;;;5077040;28;20024;-70
2022/12/14 02:23:44;;;;;;;13.52;8.60;;;12.80;99.90;;;;;;5050638;28;20082;-70
2022/12/14 02:26:20;;;;;;;11.68;8.70;;;12.80;99.90;;;;;;5076010;28;20477;-70
2022/12/14 02:29:04;;;;;;;11.68;8.48;;;12.80;99.90;;;;;;5076484;28;20021;-69
2022/12/14 02:31:41;;;;;;;11.60;8.70;;;12.80;99.90;;;;;;5075558;28;20021;-70
2022/12/14 02:34:30;;;;;;;11.93;8.55;;;12.80;99.90;;;;;;5077001;28;20119;-69
2022/12/14 02:37:03;;;;;;;14.88;10.05;;;12.70;99.90;;;;;;5076552;28;20036;-69
2022/12/14 02:39:49;;;;;;;16.73;9.00;;;12.70;99.90;;;;;;5077088;28;20048;-69
2022/12/14 02:42:37;;;;;;;11.90;8.65;;;12.70;99.90;;;;;;5075084;28;20155;-68
2022/12/14 02:45:46;;;;;;;12.02;8.32;;;12.70;99.90;;;;;;5075974;28;20044;-69
2022/12/14 02:48:17;;;;;;;12.05;8.80;;;12.70;99.90;;;;;;5068634;28;20356;-69
2022/12/14 02:50:50;;;;;;;13.52;9.63;;;12.60;99.90;;;;;;5076268;28;20103;-69
2022/12/14 02:53:37;;;;;;;12.32;8.65;;;12.60;99.90;;;;;;5076801;28;20041;-69
2022/12/14 02:56:08;;;;;;;11.95;8.60;;;12.60;99.90;;;;;;5075664;28;20051;-68
2022/12/14 02:58:41;;;;;;;13.27;9.35;;;12.60;99.90;;;;;;5074806;28;20411;-68
2022/12/14 03:01:14;;;;;;;11.55;8.52;;;12.60;99.90;;;;;;5075128;28;20021;-69
2022/12/14 03:03:41;;;;;;;13.95;9.38;;;12.50;99.90;;;;;;5076288;28;20045;-69
2022/12/14 03:06:24;;;;;;;11.98;8.77;;;12.50;99.90;;;;;;5076448;28;20025;-69
2022/12/14 03:08:59;;;;;;;12.63;8.88;;;12.50;99.90;;;;;;5075929;28;20028;-69
2022/12/14 03:11:40;;;;;;;12.90;8.75;;;12.50;99.90;;;;;;5076016;28;20082;-70
2022/12/14 03:14:12;;;;;;;12.82;9.30;;;12.50;99.90;;;;;;5074612;28;20041;-69
2022/12/14 03:16:47;;;;;;;12.45;9.43;;;12.50;99.90;;;;;;5075690;28;20553;-70
2022/12/14 03:19:28;;;;;;;12.27;8.90;;;12.50;99.90;;;;;;5076296;28;20147;-70
2022/12/14 03:22:07;;;;;;;11.98;8.85;;;12.40;99.90;;;;;;5074868;28;20028;-69
2022/12/14 03:24:57;;;;;;;23.20;9.75;;;12.40;99.90;;;;;;5076252;28;20029;-70
2022/12/14 03:27:29;;;;;;;15.00;8.90;;;12.40;99.90;;;;;;5074290;28;20028;-69
2022/12/14 03:29:59;;;;;;;11.52;8.95;;;12.40;99.90;;;;;;5075886;28;20035;-70
2022/12/14 03:32:28;;;;;;;11.30;8.27;;;12.40;99.90;;;;;;5075246;28;20178;-70
2022/12/14 03:35:00;;;;;;;11.30;8.45;;;12.40;99.90;;;;;;5075537;28;20024;-69
2022/12/14 03:37:31;;;;;;;11.50;8.88;;;12.40;99.90;;;;;;5075861;28;20021;-70
2022/12/14 03:39:57;;;;;;;11.27;8.38;;;12.40;99.90;;;;;;5075663;28;20029;-70
2022/12/14 03:42:35;;;;;;;12.07;8.55;;;12.30;99.90;;;;;;5074856;28;20138;-70
2022/12/14 03:45:29;;;;;;;13.40;9.60;;;12.40;99.90;;;;;;5075660;28;20042;-69
2022/12/14 03:48:29;;;;;;;12.02;9.02;;;12.40;99.90;;;;;;5074505;28;20027;-69
2022/12/14 03:51:36;;;;;;;11.65;8.20;;;12.40;99.90;;;;;;5055283;28;20047;-69
2022/12/14 03:54:21;;;;;;;11.20;8.82;;;12.30;99.90;;;;;;5052036;28;20051;-69
2022/12/14 03:57:14;;;;;;;12.27;8.85;;;12.30;99.90;;;;;;5075069;28;20063;-69
2022/12/14 03:59:46;;;;;;;11.73;8.07;;;12.30;99.90;;;;;;5067394;28;20364;-69
2022/12/14 04:02:21;;;;;;;12.45;8.55;;;12.30;99.90;;;;;;5075130;28;20024;-69
2022/12/14 04:05:02;;;;;;;9.93;7.80;;;12.30;99.90;;;;;;5075411;28;20028;-69
2022/12/14 04:07:40;;;;;;;11.80;8.60;;;12.30;99.90;;;;;;5075300;28;20025;-69
2022/12/14 04:18:59;;;;;;;10.60;7.88;;;12.30;99.90;;;;;;5074318;28;20040;-69
2022/12/14 04:21:54;;;;;;;11.20;8.30;;;12.30;99.90;;;;;;5075397;28;20039;-69
2022/12/14 04:27:46;;;;;;;11.10;7.60;;;12.30;99.90;;;;;;5074417;28;20404;-69
2022/12/14 04:30:13;;;;;;;11.70;8.38;;;12.30;99.90;;;;;;5075550;28;20031;-69
2022/12/14 04:32:45;;;;;;;11.70;8.25;;;12.30;99.90;;;;;;5074450;28;20036;-69
2022/12/14 04:35:38;;;;;;;11.30;7.53;;;12.30;99.90;;;;;;5075532;28;20031;-69
2022/12/14 04:38:15;;;;;;;11.65;7.60;;;12.40;99.90;;;;;;5075170;28;20032;-69
2022/12/14 04:40:47;;;;;;;11.65;7.88;;;12.40;99.90;;;;;;5074714;28;20035;-69
2022/12/14 04:43:18;;;;;;;12.93;7.53;;;12.30;99.90;;;;;;5075256;28;20041;-69
2022/12/14 04:46:12;;;;;;;10.68;8.00;;;12.40;99.90;;;;;;5074412;28;20027;-69
2022/12/14 04:48:44;;;;;;;11.73;8.32;;;12.40;99.90;;;;;;5073137;28;20060;-69
2022/12/14 04:51:14;;;;;;;10.80;7.78;;;12.40;99.90;;;;;;5075156;28;20489;-70
2022/12/14 04:53:45;;;;;;;11.05;7.47;;;12.40;99.90;;;;;;5074045;28;20056;-69
2022/12/14 04:56:23;;;;;;;11.65;8.20;;;12.40;99.90;;;;;;5074865;28;20024;-69
2022/12/14 04:58:50;;;;;;;10.77;8.13;;;12.40;99.90;;;;;;5074389;28;20020;-69
2022/12/14 05:01:39;;;;;;;10.25;7.85;;;12.40;99.90;;;;;;5074668;28;20031;-69
2022/12/14 05:04:32;;;;;;;9.95;7.63;;;12.40;99.90;;;;;;5073648;28;20040;-69
2022/12/14 05:07:10;;;;;;;9.68;6.75;;;12.40;99.90;;;;;;5074669;28;20033;-69
2022/12/14 05:09:39;;;;;;;12.80;7.72;;;12.40;99.90;;;;;;5075074;28;20039;-69
2022/12/14 05:12:24;;;;;;;10.60;7.32;;;12.40;99.90;;;;;;5073790;28;20107;-69
2022/12/14 05:15:08;;;;;;;13.48;7.28;;;12.40;99.90;;;;;;5074648;28;20457;-69
2022/12/14 05:17:36;;;;;;;12.57;7.47;;;12.40;99.90;;;;;;5074409;28;20025;-69
2022/12/14 05:20:03;;;;;;;10.48;7.30;;;12.40;99.90;;;;;;5075835;28;20370;-70
2022/12/14 05:22:29;;;;;;;12.07;7.85;;;12.40;99.90;;;;;;5078332;28;20040;-69
2022/12/14 05:24:54;;;;;;;14.18;7.70;;;12.40;99.90;;;;;;5060527;28;20028;-70
2022/12/14 05:27:20;;;;;;;10.60;7.35;;;12.40;99.90;;;;;;5077513;28;20044;-69
2022/12/14 05:29:46;;;;;;;17.58;7.53;;;12.40;99.90;;;;;;5078391;28;20033;-69
2022/12/14 05:32:12;;;;;;;11.07;7.93;;;12.40;99.90;;;;;;5076538;28;20415;-70
2022/12/14 05:34:39;;;;;;;11.20;7.82;;;12.40;99.90;;;;;;5078427;28;20028;-70
2022/12/14 05:37:05;;;;;;;10.18;7.55;;;12.40;99.90;;;;;;5077904;28;20037;-69
2022/12/14 05:39:30;;;;;;;12.07;7.60;;;12.50;99.90;;;;;;5078253;28;20037;-69
2022/12/14 05:41:56;;;;;;;9.93;7.70;;;12.40;99.90;;;;;;5077510;28;20032;-69
2022/12/14 05:44:22;;;;;;;10.90;7.35;;;12.50;99.90;;;;;;5076704;28;20419;-69
2022/12/14 05:46:48;;;;;;;10.18;7.10;;;12.50;99.90;;;;;;5076693;28;20107;-69
2022/12/14 05:49:14;;;;;;;12.50;7.35;;;12.50;99.90;;;;;;5076980;28;20028;-70
2022/12/14 05:51:40;;;;;;;11.63;7.10;;;12.50;99.90;;;;;;5077937;28;20120;-71
2022/12/14 05:54:06;;;;;;;12.10;7.60;;;12.50;99.90;;;;;;5077552;28;20500;-69
2022/12/14 05:56:32;;;;;;;12.52;8.18;;;12.60;99.90;;;;;;5077434;28;20328;-70
2022/12/14 05:58:58;;;;;;;12.20;7.38;;;12.60;99.90;;;;;;5076118;28;20090;-70
2022/12/14 06:01:23;;;;;;;10.18;7.13;;;12.50;99.90;;;;;;5077434;28;20411;-69
2022/12/14 06:03:53;;;;;;;13.13;7.88;;;12.60;99.90;;;;;;5077697;28;20032;-70
2022/12/14 06:06:20;;;;;;;10.73;7.53;;;12.60;99.90;;;;;;5077743;28;20078;-71
2022/12/14 06:08:46;;;;;;;11.23;7.20;;;12.60;99.90;;;;;;5077776;28;20059;-71
2022/12/14 06:11:21;;;;;;;11.27;7.25;;;12.60;99.90;;;;;;5070141;28;20032;-70
2022/12/14 06:13:48;;;;;;;10.50;7.38;;;12.70;99.90;;;;;;5072249;28;20084;-70
2022/12/14 06:16:17;;;;;;;8.80;6.82;;;12.70;99.90;;;;;;5076864;28;20098;-71
2022/12/14 06:18:46;;;;;;;11.18;7.55;;;12.70;99.90;;;;;;5076282;28;20029;-70
2022/12/14 06:21:14;;;;;;;10.02;7.50;;;12.70;99.90;;;;;;5077086;28;20059;-70
2022/12/14 06:23:40;;;;;;;11.32;7.72;;;12.70;99.90;;;;;;5076145;28;20033;-69
2022/12/14 06:26:09;;;;;;;11.68;7.32;;;12.70;99.90;;;;;;5076494;28;20032;-68
2022/12/14 06:28:36;;;;;;;9.48;6.53;;;12.70;99.90;;;;;;5075755;28;20029;-68
2022/12/14 06:31:02;;;;;;;10.27;7.47;;;12.80;99.90;;;;;;5076316;28;20028;-68
2022/12/14 06:33:28;;;;;;;10.10;6.80;;;12.80;99.90;;;;;;5076953;28;20110;-69
2022/12/14 06:35:55;;;;;;;10.35;7.75;;;12.80;99.90;;;;;;5066906;28;20036;-69
2022/12/14 06:38:21;;;;;;;10.82;6.65;;;12.80;99.90;;;;;;5072022;28;20052;-68
2022/12/14 06:40:47;;;;;;;9.95;7.20;;;12.80;99.90;;;;;;5053999;28;20439;-68
2022/12/14 06:43:13;;;;;;;10.98;7.30;;;12.80;99.90;;;;;;5055895;28;20284;-69
2022/12/14 06:45:39;;;;;;;9.75;7.05;;;12.80;99.90;;;;;;5055855;28;20688;-68
2022/12/14 06:48:05;;;;;;;10.35;7.45;;;12.80;99.90;;;;;;5056146;28;20025;-69
2022/12/14 06:50:31;;;;;;;10.07;6.97;;;12.90;99.90;;;;;;5056156;28;20045;-69
2022/12/14 06:52:58;;;;;;;9.55;6.72;;;12.90;99.90;;;;;;5054995;28;20428;-68
2022/12/14 06:55:27;;;;;;;12.88;7.57;;;12.90;99.90;;;;;;5055923;28;20035;-69
2022/12/14 06:57:53;;;;;;;13.05;7.28;;;12.90;99.90;;;;;;5056192;28;20416;-69
2022/12/14 07:00:22;;;;;;;11.10;7.30;;;12.90;99.90;;;;;;5055806;28;20029;-68
2022/12/14 07:02:48;;;;;;;10.95;7.35;;;12.90;99.90;;;;;;5063443;28;20051;-69
2022/12/14 07:05:14;;;;;;;13.50;7.85;;;12.90;99.90;;;;;;5074219;28;20032;-69
2022/12/14 07:07:41;;;;;;;12.30;7.40;;;12.90;99.90;;;;;;5072790;28;20059;-70
2022/12/14 07:10:08;;;;;;;12.40;7.90;;;12.90;99.90;;;;;;5075338;28;20082;-69
2022/12/14 07:12:34;;;;;;;11.25;7.43;;;12.90;99.90;;;;;;5073953;28;20102;-70
2022/12/14 07:15:01;;;;;;;15.57;8.05;;;12.90;99.90;;;;;;5074317;28;20044;-68
2022/12/14 07:17:27;;;;;;;10.15;7.35;;;12.90;99.90;;;;;;5075413;28;20354;-68
2022/12/14 07:19:53;;;;;;;11.68;7.93;;;13.00;99.90;;;;;;5075899;28;20025;-69
2022/12/14 07:22:19;;;;;;;11.15;7.60;;;12.90;99.90;;;;;;5069728;28;20081;-69
2022/12/14 07:24:45;;;;;;;11.40;7.22;;;12.90;99.90;;;;;;5069349;28;20123;-69
2022/12/14 07:27:11;;;;;;;10.57;7.35;;;13.00;99.90;;;;;;5067219;28;20118;-69
2022/12/14 07:29:37;;;;;;;9.65;6.72;;;13.00;99.90;;;;;;5070552;28;20036;-69
2022/12/14 07:32:03;;;;;;;11.38;7.38;;;12.90;99.90;;;;;;5062959;28;20375;-69
2022/12/14 07:34:29;;;;;;;10.68;7.03;;;13.00;99.90;;;;;;5064151;28;20435;-69
2022/12/14 07:36:55;;;;;;;10.23;7.03;;;13.00;99.90;;;;;;5071288;28;20050;-69
2022/12/14 07:39:21;;;;;;;9.95;6.82;;;12.90;99.90;;;;;;5075310;28;20024;-69
2022/12/14 07:41:49;;;;;;;10.07;7.07;;;13.00;99.90;;;;;;5073305;28;20053;-69
2022/12/14 07:44:19;;;;;;;11.00;7.20;;;13.00;99.90;;;;;;5071980;28;20117;-69
2022/12/14 07:46:46;;;;;;;11.75;7.20;;;13.00;99.90;;;;;;5069190;28;20324;-69
2022/12/14 07:49:12;;;;;;;9.95;7.13;;;13.00;99.90;;;;;;5068352;28;20036;-69
2022/12/14 07:51:43;;;;;;;12.75;8.23;;;13.00;99.90;;;;;;5038787;28;20036;-69
2022/12/14 07:54:10;;;;;;;9.98;7.10;;;13.00;99.90;;;;;;5071795;28;20033;-70
2022/12/14 07:56:38;;;;;;;11.63;7.43;;;13.00;99.90;;;;;;5073060;28;20374;-69
2022/12/14 07:59:07;;;;;;;11.80;7.93;;;13.00;99.90;;;;;;5073661;28;20025;-69
2022/12/14 08:01:36;;;;;;;10.73;7.35;;;13.00;99.90;;;;;;5070232;28;20408;-69
2022/12/14 08:04:19;;;;;;;12.93;8.15;;;13.00;99.90;;;;;;5059300;28;20068;-69
2022/12/14 08:06:46;;;;;;;11.93;8.38;;;13.00;99.90;;;;;;5060959;28;20040;-69
2022/12/14 08:09:14;;;;;;;12.32;7.90;;;13.00;99.90;;;;;;5021383;28;20516;-70
2022/12/14 08:11:40;;;;;;;11.32;8.23;;;13.00;99.90;;;;;;4994995;28;20357;-70
2022/12/14 08:14:12;;;;;;;15.65;8.45;;;13.00;99.90;;;;;;4993677;28;20050;-69
2022/12/14 08:16:38;;;;;;;12.02;8.18;;;13.00;99.90;;;;;;4994745;28;20030;-70
2022/12/14 08:19:04;;;;;;;12.18;8.55;;;13.00;99.90;;;;;;4994932;28;20030;-69
2022/12/14 08:21:30;;;;;;;11.43;8.23;;;13.00;99.90;;;;;;4995124;28;20038;-69
2022/12/14 08:23:56;;;;;;;13.55;8.57;;;13.00;99.90;;;;;;4996068;28;20081;-69
2022/12/14 08:26:24;;;;;;;13.15;8.30;;;13.00;99.90;;;;;;4995380;28;20034;-69
2022/12/14 08:28:50;;;;;;;12.63;8.45;;;13.00;99.90;;;;;;4996084;28;20104;-69
2022/12/14 08:31:19;;;;;;;11.80;8.43;;;13.00;99.90;;;;;;4998179;28;20045;-69
2022/12/14 08:33:47;;;;;;;12.07;8.52;;;13.00;99.90;;;;;;5012167;28;20422;-69
2022/12/14 08:36:15;;;;;;;11.93;8.43;;;13.00;99.90;;;;;;5015051;28;20033;-71
2022/12/14 08:38:41;;;;;;;12.65;8.82;;;13.00;99.90;;;;;;5015728;28;20034;-70
2022/12/14 08:41:12;;;;;;;12.13;8.57;;;13.00;99.90;;;;;;5014850;28;20298;-70
2022/12/14 08:43:39;;;;;;;12.32;8.25;;;13.10;99.90;;;;;;5014362;28;20091;-71
2022/12/14 08:46:08;;;;;;;13.32;9.00;;;13.10;99.90;;;;;;5014817;28;20034;-68
2022/12/14 08:48:34;;;;;;;13.10;8.50;;;13.00;99.90;;;;;;5015485;28;20037;-70
2022/12/14 08:51:05;;;;;;;13.57;8.68;;;13.10;99.90;;;;;;5014468;28;20045;-70
2022/12/14 08:53:31;;;;;;;12.23;8.60;;;13.00;99.90;;;;;;5015531;28;20037;-70
2022/12/14 08:55:57;;;;;;;10.85;8.13;;;13.00;99.90;;;;;;5017716;28;20026;-70
2022/12/14 08:58:23;;;;;;;11.68;8.35;;;13.10;99.90;;;;;;5001543;28;20080;-70
2022/12/14 09:00:49;;;;;;;11.93;8.45;;;13.10;99.90;;;;;;5009814;28;20161;-70
2022/12/14 09:03:15;;;;;;;11.18;7.70;;;13.10;99.90;;;;;;5008951;28;20117;-69
2022/12/14 09:05:41;;;;;;;12.05;8.55;;;13.10;99.90;;;;;;5007497;28;20030;-70
2022/12/14 09:08:08;;;;;;;12.45;8.32;;;13.10;99.90;;;;;;5015616;28;20060;-70
2022/12/14 09:10:33;;;;;;;12.35;8.15;;;13.10;99.90;;;;;;5018589;28;20034;-69
2022/12/14 09:12:59;;;;;;;14.63;8.05;;;13.10;99.90;;;;;;5017841;28;20421;-69
2022/12/14 09:15:25;;;;;;;13.57;7.70;;;13.10;99.90;;;;;;5017262;28;20056;-70
2022/12/14 09:17:51;;;;;;;12.82;8.10;;;13.10;99.90;;;;;;5015860;28;20338;-69
2022/12/14 09:20:17;;;;;;;11.95;7.78;;;13.10;99.90;;;;;;5012391;28;20109;-70
2022/12/14 09:22:44;;;;;;;12.60;7.97;;;13.10;99.90;;;;;;4988285;28;20429;-71
2022/12/14 09:25:10;;;;;;;11.63;7.90;;;13.20;99.90;;;;;;5007675;28;20111;-70
2022/12/14 09:27:36;;;;;;;10.68;7.45;;;13.20;99.90;;;;;;4997190;28;20114;-70
2022/12/14 09:30:03;;;;;;;12.57;7.90;;;13.20;99.90;;;;;;4999207;28;20399;-70
2022/12/14 09:32:30;;;;;;;10.98;7.53;;;13.20;99.90;;;;;;4998097;28;20065;-70
2022/12/14 09:34:58;;;;;;;11.27;7.47;;;13.20;99.90;;;;;;4998322;28;20049;-71
2022/12/14 09:37:24;;;;;;;10.68;7.47;;;13.20;99.90;;;;;;4997291;28;20373;-69
2022/12/14 09:39:50;;;;;;;10.00;7.15;;;13.30;99.90;;;;;;4982056;28;20050;-69
2022/12/14 09:42:46;;;;;;;10.38;6.82;;;13.30;99.90;;;;;;4996510;28;20062;-69
2022/12/14 09:45:19;;;;;;;9.75;7.07;;;13.30;99.90;;;;;;4998723;28;20030;-70
2022/12/14 09:47:51;;;;;;;11.18;7.10;;;13.30;99.90;;;;;;5013847;28;20033;-70
2022/12/14 09:50:20;;;;;;;10.60;7.15;;;13.30;99.90;;;;;;4998595;28;20050;-70
2022/12/14 09:53:11;;;;;;;13.80;6.57;;;13.40;99.90;;;;;;4996208;28;20476;-69
2022/12/14 09:55:42;;;;;;;10.15;7.60;;;13.40;99.90;;;;;;4979993;28;20426;-69
2022/12/14 09:58:20;;;;;;;9.88;7.10;;;13.40;99.90;;;;;;4998177;28;20049;-69
2022/12/14 10:00:58;;;;;;;14.75;6.90;;;13.50;99.90;;;;;;4998079;28;20025;-70
2022/12/14 10:03:33;;;;;;;9.10;6.53;;;13.50;99.90;;;;;;4997299;28;20038;-69
2022/12/14 10:06:02;;;;;;;9.25;6.43;;;13.50;99.90;;;;;;4997102;28;20042;-69
2022/12/14 10:08:42;;;;;;;9.40;6.40;;;13.50;99.90;;;;;;5000885;28;20032;-70
2022/12/14 10:11:36;;;;;;;11.18;6.88;;;13.60;99.90;;;;;;5016658;28;20421;-70
2022/12/14 10:14:22;;;;;;;9.00;6.30;;;13.60;99.90;;;;;;5017311;28;20165;-69
2022/12/14 10:17:13;;;;;;;9.45;6.50;;;13.60;99.90;;;;;;5017047;28;20430;-69
2022/12/14 10:19:49;;;;;;;10.63;6.07;;;13.70;99.90;;;;;;5013140;28;20073;-69
2022/12/14 10:22:21;;;;;;;9.45;6.03;;;13.70;99.90;;;;;;5017318;28;20034;-69
2022/12/14 10:25:09;;;;;;;9.32;5.97;;;13.70;99.90;;;;;;5017779;28;20436;-69
2022/12/14 10:27:39;;;;;;;10.90;6.40;;;13.70;99.90;;;;;;5015211;28;20041;-70
2022/12/14 10:30:14;;;;;;;9.13;6.13;;;13.80;99.90;;;;;;5008271;28;20053;-71
2022/12/14 10:32:45;;;;;;;10.55;5.72;;;13.80;99.90;;;;;;4998409;28;20023;-70
2022/12/14 10:35:13;;;;;;;8.43;5.88;;;13.80;99.90;;;;;;4998052;28;20027;-70
2022/12/14 10:37:43;;;;;;;7.60;5.07;;;13.80;99.90;;;;;;4997586;28;20105;-70
2022/12/14 10:40:09;;;;;;;7.78;5.18;;;13.80;99.90;;;;;;5017243;28;20022;-70
2022/12/14 10:42:56;;;;;;;8.38;5.00;;;13.80;99.90;;;;;;5016048;28;20036;-70
2022/12/14 10:45:34;;;;;;;7.32;4.88;;;13.80;99.90;;;;;;5016668;28;20033;-70
2022/12/14 10:48:38;;;;;;;8.95;5.53;;;13.90;99.90;;;;;;5016155;28;20504;-70
2022/12/14 10:51:32;;;;;;;8.73;4.75;;;13.90;99.90;;;;;;5015068;28;20057;-70
2022/12/14 10:54:23;;;;;;;7.85;5.10;;;13.90;99.90;;;;;;5016982;28;20108;-69
2022/12/14 10:56:49;;;;;;;8.77;5.78;;;13.90;99.90;;;;;;5015423;28;20101;-78
2022/12/14 10:59:21;;;;;;;156.20;10.85;;;13.90;99.90;;;;;;5015965;28;20321;-74
2022/12/14 18:46:39;;;;;;;27.52;17.30;;;-1.70;99.90;;;;;;5515937;22;16277014;-96
2022/12/14 18:50:06;;;;;;;28.67;16.60;;;-2.00;99.90;;;;;;6127715;23;20048;-96
2022/12/14 18:54:05;;;;;;;31.08;16.65;;;-2.00;99.90;;;;;;6144146;23;20013;-94
2022/12/14 18:57:19;;;;;;;32.00;16.85;;;-2.00;99.90;;;;;;6178196;23;20378;-96
2022/12/14 19:04:35;;;;;;;30.67;16.85;;;-1.90;99.90;;;;;;6072369;23;20017;-95
2022/12/14 19:08:00;;;;;;;26.20;14.68;;;-1.50;99.90;;;;;;6093842;23;20017;-96
2022/12/14 19:19:29;;;;;;;26.05;13.27;;;-0.10;99.90;;;;;;5964166;24;20071;-95
2022/12/14 19:22:28;;;;;;;;;;;;;;;;;;;;;
2022/12/14 19:26:18;;;;;;;23.20;11.70;;;-0.40;99.90;;;;;;6115298;23;20414;-95
2022/12/14 19:29:47;;;;;;;22.88;11.45;;;-0.60;99.90;;;;;;6119947;23;20013;-96
2022/12/14 19:37:25;;;;;;;;;;;;;;;;;;;;;
2022/12/14 19:49:21;;;;;;;16.30;8.98;;;-0.90;99.90;;;;;;5994061;23;20058;-95
2022/12/14 19:53:17;;;;;;;19.08;9.63;;;-1.00;99.90;;;;;;5992533;23;20022;-94
2022/12/14 19:56:52;;;;;;;17.75;8.80;;;-1.00;99.90;;;;;;5990177;23;20012;-95
2022/12/14 20:01:30;;;;;;;18.70;9.20;;;-1.00;99.90;;;;;;5993238;23;20031;-96
2022/12/14 20:07:41;;;;;;;16.55;8.73;;;-1.10;99.90;;;;;;5947531;23;20016;-93
2022/12/14 20:11:48;;;;;;;18.55;9.32;;;-1.00;99.90;;;;;;5884860;24;20014;-95
2022/12/14 20:15:33;;;;;;;;;;;;;;;;;;;;;
2022/12/14 20:18:49;;;;;;;;;;;;;;;;;;;;;
2022/12/14 20:21:42;;;;;;;;;;;;;;;;;;;;;
2022/12/14 20:24:39;;;;;;;16.98;8.00;;;-1.20;99.90;;;;;;6033648;23;20014;-95
2022/12/14 20:31:51;;;;;;;17.77;8.45;;;-1.30;99.90;;;;;;6025898;23;20101;-92
2022/12/14 20:35:17;;;;;;;;;;;;;;;;;;;;;
2022/12/14 20:39:04;;;;;;;;;;;;;;;;;;;;;
2022/12/14 20:42:30;;;;;;;;;;;;;;;;;;;;;
2022/12/14 20:45:52;;;;;;;15.73;8.23;;;-1.30;99.90;;;;;;6038384;23;20012;-95
2022/12/14 20:49:05;;;;;;;15.63;7.95;;;-1.50;99.90;;;;;;6040963;23;20019;-94
2022/12/14 20:51:58;;;;;;;13.93;7.80;;;-1.60;99.90;;;;;;6046282;23;20071;-95
2022/12/14 20:55:21;;;;;;;19.23;8.57;;;-1.60;99.90;;;;;;6047589;23;20045;-95
2022/12/14 20:58:48;;;;;;;;;;;;;;;;;;;;;
2022/12/14 21:01:26;;;;;;;14.68;6.65;;;-1.60;99.90;;;;;;6148957;23;20335;-95
2022/12/14 21:04:21;;;;;;;14.35;6.72;;;-1.70;99.90;;;;;;6132679;23;20017;-93
2022/12/14 21:08:05;;;;;;;15.85;6.85;;;-1.60;99.90;;;;;;6141555;23;20016;-93
2022/12/14 21:15:59;;;;;;;14.75;6.60;;;-1.20;99.90;;;;;;6074174;23;20055;-93
2022/12/14 21:18:58;;;;;;;16.10;7.18;;;-1.40;99.90;;;;;;6095549;23;20088;-94
2022/12/14 22:12:12;;;;;;;;;;;;;;;;;;;;;
2022/12/14 22:19:59;;;;;;;14.23;4.82;;;-1.60;99.90;;;;;;6044955;23;20035;-96
2022/12/14 22:24:20;;;;;;;12.43;4.78;;;-1.70;99.90;;;;;;6022604;23;20071;-95
2022/12/14 22:32:57;;;;;;;12.75;6.53;;;-1.90;99.90;;;;;;6015561;23;20016;-94
2022/12/14 22:40:49;;;;;;;10.10;3.50;;;-1.90;99.90;;;;;;5915329;24;20013;-93
2022/12/14 22:43:24;;;;;;;9.73;3.58;;;-2.10;99.90;;;;;;5926037;24;20415;-93
2022/12/14 22:46:48;;;;;;;;;;;;;;;;;;;;;
2022/12/14 22:49:18;;;;;;;12.20;6.25;;;-2.00;99.90;;;;;;6025416;23;20010;-93
2022/12/14 22:55:35;;;;;;;18.65;7.00;;;-1.90;99.90;;;;;;6011287;23;20055;-92
2022/12/14 22:58:43;;;;;;;12.93;5.18;;;-1.80;99.90;;;;;;6016659;23;20038;-93
2022/12/14 23:01:55;;;;;;;12.25;4.63;;;-1.60;99.90;;;;;;6061989;23;20034;-94
2022/12/14 23:04:31;;;;;;;12.55;4.28;;;-1.50;99.90;;;;;;6009110;23;20058;-93
2022/12/14 23:07:18;;;;;;;11.48;5.85;;;-1.40;99.90;;;;;;6104817;23;20009;-94
